Time;durP1;ratioP1;P1;durP2;ratioP2;P2;SDS_P1;SDS_P2;PMS_P1;PMS_P2;Temp;Humidity;BMP_temperature;BMP_pressure;BME280_temperature;BME280_humidity;BME280_pressure;Samples;Min_cycle;Max_cycle;Signal;HPM_P1;HPM_P2
2021/08/03 00:01:38;;;;;;;2.22;0.80;;;16.50;90.00;;;;;;5015269;28;20018;-73
2021/08/03 00:04:10;;;;;;;3.63;0.82;;;16.50;90.10;;;;;;5015584;28;20024;-71
2021/08/03 00:06:40;;;;;;;1.83;0.85;;;16.40;90.10;;;;;;5015606;28;20014;-72
2021/08/03 00:09:06;;;;;;;1.48;0.80;;;16.40;90.20;;;;;;5031030;28;20378;-73
2021/08/03 00:11:32;;;;;;;2.17;0.80;;;16.40;90.20;;;;;;5030766;28;20052;-73
2021/08/03 00:14:02;;;;;;;0.85;0.70;;;16.30;90.20;;;;;;5014922;28;20076;-70
2021/08/03 00:16:34;;;;;;;0.63;0.60;;;16.30;90.30;;;;;;5015485;28;20068;-70
2021/08/03 00:19:00;;;;;;;1.17;0.75;;;16.30;90.30;;;;;;5014781;28;20072;-73
2021/08/03 00:21:26;;;;;;;4.13;0.70;;;16.30;90.30;;;;;;5015093;28;20054;-73
2021/08/03 00:23:52;;;;;;;0.80;0.75;;;16.30;90.30;;;;;;5014705;28;20053;-73
2021/08/03 00:26:18;;;;;;;1.35;0.90;;;16.30;90.30;;;;;;5030570;28;20021;-73
2021/08/03 00:28:49;;;;;;;3.20;0.80;;;16.30;90.30;;;;;;5014684;28;20079;-70
2021/08/03 00:31:17;;;;;;;1.77;1.00;;;16.30;90.30;;;;;;5015220;28;20017;-73
2021/08/03 00:33:51;;;;;;;1.38;0.90;;;16.30;90.40;;;;;;5014547;28;20052;-74
2021/08/03 00:36:18;;;;;;;2.13;0.70;;;16.30;90.40;;;;;;5015066;28;20037;-71
2021/08/03 00:38:44;;;;;;;1.60;0.82;;;16.30;90.70;;;;;;5014019;28;20398;-71
2021/08/03 00:41:14;;;;;;;1.67;0.93;;;16.30;90.50;;;;;;5014916;28;20022;-71
2021/08/03 00:43:40;;;;;;;3.07;0.90;;;16.30;90.50;;;;;;5014543;28;20152;-71
2021/08/03 00:46:06;;;;;;;2.03;0.90;;;16.30;90.40;;;;;;5014822;28;20093;-73
2021/08/03 00:48:32;;;;;;;3.97;1.17;;;16.30;90.50;;;;;;5014836;28;20029;-71
2021/08/03 00:50:58;;;;;;;1.15;0.80;;;16.20;90.50;;;;;;5014214;28;20044;-73
2021/08/03 00:53:23;;;;;;;1.98;0.90;;;16.20;90.50;;;;;;5014861;28;20028;-73
2021/08/03 00:55:49;;;;;;;1.65;0.90;;;16.20;90.60;;;;;;5014077;28;20021;-73
2021/08/03 00:58:15;;;;;;;2.30;1.05;;;16.20;90.60;;;;;;5014263;28;20030;-73
2021/08/03 01:00:41;;;;;;;0.82;0.70;;;16.20;90.70;;;;;;5014061;28;20018;-74
2021/08/03 01:03:07;;;;;;;1.60;0.90;;;16.20;90.70;;;;;;4995397;28;20344;-71
2021/08/03 01:05:54;;;;;;;1.65;0.80;;;16.20;90.60;;;;;;4995010;28;20101;-73
2021/08/03 01:08:41;;;;;;;1.58;0.77;;;16.20;90.60;;;;;;4995143;28;20458;-70
2021/08/03 01:11:24;;;;;;;1.40;0.85;;;16.10;90.60;;;;;;4994305;28;20082;-71
2021/08/03 01:14:04;;;;;;;1.75;0.80;;;16.10;90.60;;;;;;4994254;28;20022;-71
2021/08/03 01:16:53;;;;;;;1.60;0.88;;;16.10;90.60;;;;;;4994752;28;20026;-70
2021/08/03 01:19:46;;;;;;;0.93;0.70;;;16.10;90.70;;;;;;4993312;28;20469;-73
2021/08/03 01:22:20;;;;;;;1.10;0.60;;;16.10;90.70;;;;;;5009973;28;20022;-73
2021/08/03 01:25:16;;;;;;;0.85;0.47;;;16.10;90.70;;;;;;4994055;28;20081;-73
2021/08/03 01:28:18;;;;;;;1.10;0.60;;;16.10;90.70;;;;;;4992405;28;20116;-71
2021/08/03 01:30:49;;;;;;;1.27;0.68;;;16.10;90.70;;;;;;4993823;28;20033;-72
2021/08/03 01:33:19;;;;;;;1.05;0.60;;;16.10;91.00;;;;;;4994516;28;20454;-71
2021/08/03 01:35:46;;;;;;;1.05;0.77;;;16.00;90.70;;;;;;5008791;28;20102;-72
2021/08/03 01:38:13;;;;;;;1.05;0.70;;;16.00;90.80;;;;;;4994491;28;20038;-72
2021/08/03 01:40:46;;;;;;;1.15;0.75;;;16.00;90.80;;;;;;5009288;28;20028;-71
2021/08/03 01:43:12;;;;;;;1.20;0.60;;;16.00;90.90;;;;;;4994225;28;20134;-72
2021/08/03 01:45:38;;;;;;;1.02;0.68;;;16.00;90.80;;;;;;4994347;28;20454;-71
2021/08/03 01:48:08;;;;;;;1.80;0.77;;;16.00;90.80;;;;;;4993543;28;20868;-71
2021/08/03 01:50:34;;;;;;;1.13;0.70;;;16.00;90.90;;;;;;4993877;28;20042;-72
2021/08/03 01:53:01;;;;;;;2.35;0.80;;;16.00;90.90;;;;;;5008710;28;20104;-72
2021/08/03 01:55:28;;;;;;;1.30;0.82;;;16.00;91.00;;;;;;5009043;28;20049;-72
2021/08/03 01:57:55;;;;;;;2.05;0.98;;;15.90;91.00;;;;;;4993287;28;20037;-71
2021/08/03 02:00:21;;;;;;;1.23;0.77;;;16.00;91.00;;;;;;4993639;28;20026;-72
2021/08/03 02:02:47;;;;;;;1.55;0.73;;;15.90;91.00;;;;;;4992994;28;20466;-72
2021/08/03 02:05:14;;;;;;;1.45;1.00;;;15.90;91.00;;;;;;4993799;28;20022;-71
2021/08/03 02:07:40;;;;;;;2.83;0.80;;;16.00;91.00;;;;;;5008764;28;20025;-71
2021/08/03 02:10:06;;;;;;;3.60;0.82;;;16.00;91.10;;;;;;4992826;28;20070;-71
2021/08/03 02:12:34;;;;;;;1.73;0.88;;;15.90;91.10;;;;;;4993415;28;20046;-71
2021/08/03 02:14:59;;;;;;;1.80;1.00;;;15.90;91.10;;;;;;4993024;28;20339;-71
2021/08/03 02:17:26;;;;;;;3.85;1.35;;;15.90;91.10;;;;;;4993265;28;20014;-72
2021/08/03 02:19:52;;;;;;;1.98;1.00;;;15.90;91.20;;;;;;4992976;28;20533;-72
2021/08/03 02:22:19;;;;;;;1.63;1.00;;;15.90;91.20;;;;;;4992499;28;20054;-72
2021/08/03 02:24:45;;;;;;;1.77;0.95;;;15.90;91.20;;;;;;4993498;28;20029;-72
2021/08/03 02:27:11;;;;;;;0.75;0.70;;;15.80;91.20;;;;;;4993114;28;20033;-71
2021/08/03 02:29:39;;;;;;;1.63;1.00;;;15.80;91.20;;;;;;4993707;28;20034;-71
2021/08/03 02:32:04;;;;;;;1.63;0.82;;;15.90;91.50;;;;;;4992660;28;20042;-72
2021/08/03 02:34:36;;;;;;;1.75;0.75;;;15.90;91.20;;;;;;4993564;28;20026;-72
2021/08/03 02:37:06;;;;;;;1.95;0.95;;;15.80;91.20;;;;;;4992516;28;20159;-72
2021/08/03 02:39:34;;;;;;;1.23;0.95;;;15.80;91.30;;;;;;4993346;28;20525;-72
2021/08/03 02:42:00;;;;;;;2.75;0.80;;;15.80;91.30;;;;;;5007666;28;20029;-72
2021/08/03 02:44:27;;;;;;;1.33;0.65;;;15.80;91.30;;;;;;4993627;28;20097;-72
2021/08/03 02:46:55;;;;;;;1.63;0.90;;;15.80;91.30;;;;;;5007585;28;20018;-71
2021/08/03 02:50:05;;;;;;;1.55;0.80;;;15.80;91.30;;;;;;4993022;28;20026;-71
2021/08/03 02:52:16;;;;;;;1.40;0.73;;;15.80;91.30;;;;;;4992959;28;20018;-71
2021/08/03 02:54:47;;;;;;;0.85;0.60;;;15.80;91.40;;;;;;4992444;28;20550;-71
2021/08/03 02:57:15;;;;;;;0.85;0.70;;;15.80;91.40;;;;;;4991667;28;20037;-71
2021/08/03 02:59:46;;;;;;;4.03;1.08;;;15.80;91.40;;;;;;4992012;28;20054;-71
2021/08/03 03:02:14;;;;;;;1.60;0.73;;;15.70;91.40;;;;;;5001523;28;20122;-72
2021/08/03 03:04:54;;;;;;;2.95;0.75;;;15.80;91.40;;;;;;5025970;28;20026;-71
2021/08/03 03:07:27;;;;;;;2.80;1.00;;;15.70;91.40;;;;;;5010956;28;20088;-72
2021/08/03 03:09:55;;;;;;;0.98;0.70;;;15.70;91.40;;;;;;5010435;28;20081;-71
2021/08/03 03:12:22;;;;;;;3.65;1.05;;;15.70;91.40;;;;;;5011547;28;20021;-71
2021/08/03 03:14:50;;;;;;;1.17;0.52;;;15.70;91.40;;;;;;5011277;28;20469;-71
2021/08/03 03:17:17;;;;;;;2.53;0.70;;;15.70;91.50;;;;;;5010805;28;20022;-71
2021/08/03 03:19:44;;;;;;;1.00;0.75;;;15.60;91.40;;;;;;5011336;28;20120;-71
2021/08/03 03:22:11;;;;;;;1.90;0.80;;;15.60;91.50;;;;;;5011479;28;20018;-72
2021/08/03 03:24:37;;;;;;;1.50;0.98;;;15.60;91.50;;;;;;5012237;28;20038;-71
2021/08/03 03:27:05;;;;;;;1.35;0.85;;;15.60;91.60;;;;;;5011619;28;20029;-71
2021/08/03 03:29:31;;;;;;;3.05;0.98;;;15.60;91.60;;;;;;5027178;28;20021;-71
2021/08/03 03:31:57;;;;;;;0.77;0.70;;;15.60;91.60;;;;;;5011763;28;20014;-71
2021/08/03 03:34:26;;;;;;;1.48;0.80;;;15.60;91.60;;;;;;5027437;28;20022;-71
2021/08/03 03:36:52;;;;;;;1.67;1.00;;;15.70;91.70;;;;;;5015553;28;20029;-71
2021/08/03 03:39:19;;;;;;;2.65;0.80;;;15.70;91.70;;;;;;5016172;28;20085;-71
2021/08/03 03:41:56;;;;;;;1.92;0.85;;;15.70;91.70;;;;;;5016188;28;20029;-71
2021/08/03 03:44:22;;;;;;;1.45;0.88;;;15.60;91.70;;;;;;5016190;28;20067;-71
2021/08/03 03:47:06;;;;;;;2.22;1.00;;;15.70;91.80;;;;;;5016036;28;20104;-71
2021/08/03 03:49:37;;;;;;;1.15;0.85;;;15.70;91.80;;;;;;5016035;28;20025;-71
2021/08/03 03:52:05;;;;;;;1.88;1.08;;;15.70;91.80;;;;;;5015385;28;20042;-72
2021/08/03 03:54:36;;;;;;;1.88;1.00;;;15.70;91.70;;;;;;5015848;28;20480;-71
2021/08/03 03:57:04;;;;;;;4.30;1.42;;;15.70;91.70;;;;;;5015249;28;20018;-72
2021/08/03 03:59:30;;;;;;;2.78;1.20;;;15.70;91.70;;;;;;5015505;28;20030;-72
2021/08/03 04:02:01;;;;;;;1.40;0.85;;;15.70;91.80;;;;;;5030427;28;20018;-72
2021/08/03 04:04:28;;;;;;;0.87;0.77;;;15.70;91.80;;;;;;5015432;28;20354;-72
2021/08/03 04:06:53;;;;;;;1.83;1.00;;;15.70;91.80;;;;;;5014754;28;20052;-72
2021/08/03 04:09:23;;;;;;;2.25;1.23;;;15.70;91.80;;;;;;5030508;28;20113;-71
2021/08/03 04:11:51;;;;;;;1.50;0.90;;;15.70;91.80;;;;;;5030968;28;20014;-72
2021/08/03 04:14:22;;;;;;;2.65;0.88;;;15.60;91.80;;;;;;5014884;28;20732;-72
2021/08/03 04:16:49;;;;;;;4.70;0.95;;;15.70;91.90;;;;;;5012145;28;20094;-72
2021/08/03 04:19:15;;;;;;;1.73;0.90;;;15.70;91.90;;;;;;5001114;28;20030;-72
2021/08/03 04:21:42;;;;;;;3.00;0.90;;;15.70;91.90;;;;;;5006459;28;20029;-71
2021/08/03 04:24:08;;;;;;;1.52;0.82;;;15.70;91.90;;;;;;5003270;28;20442;-72
2021/08/03 04:26:35;;;;;;;3.13;1.00;;;15.70;91.90;;;;;;5007153;28;20113;-72
2021/08/03 04:29:01;;;;;;;4.00;2.10;;;15.70;91.90;;;;;;4994564;28;20108;-72
2021/08/03 04:31:26;;;;;;;4.40;1.85;;;15.70;92.00;;;;;;4995095;28;20121;-72
2021/08/03 04:33:52;;;;;;;3.20;1.83;;;15.70;92.00;;;;;;5001149;28;20030;-72
2021/08/03 04:36:18;;;;;;;2.20;1.40;;;15.70;92.00;;;;;;5002344;28;20812;-73
2021/08/03 04:38:44;;;;;;;1.92;1.15;;;15.70;92.00;;;;;;5004944;28;20026;-72
2021/08/03 04:41:09;;;;;;;1.38;0.98;;;15.70;92.00;;;;;;5015999;28;20089;-72
2021/08/03 04:43:35;;;;;;;2.95;1.13;;;15.70;92.00;;;;;;5003612;28;20426;-72
2021/08/03 04:46:01;;;;;;;1.25;0.90;;;15.70;92.00;;;;;;4999567;28;20041;-73
2021/08/03 04:48:26;;;;;;;2.03;0.90;;;15.70;92.10;;;;;;5000296;28;20469;-72
2021/08/03 04:50:52;;;;;;;1.63;0.90;;;15.70;92.10;;;;;;5011918;28;20405;-73
2021/08/03 04:53:18;;;;;;;0.93;0.70;;;15.70;92.10;;;;;;5013935;28;20018;-71
2021/08/03 04:55:43;;;;;;;2.58;0.77;;;15.70;92.10;;;;;;5014711;28;20525;-71
2021/08/03 04:58:09;;;;;;;1.50;0.70;;;15.70;92.10;;;;;;5008477;28;20041;-72
2021/08/03 05:00:35;;;;;;;1.80;0.98;;;15.70;92.10;;;;;;5029783;28;20364;-71
2021/08/03 05:03:01;;;;;;;1.63;0.77;;;15.70;92.10;;;;;;5014053;28;20381;-71
2021/08/03 05:05:27;;;;;;;2.13;0.88;;;15.70;92.00;;;;;;5014538;28;20446;-71
2021/08/03 05:08:00;;;;;;;1.33;0.70;;;15.80;92.10;;;;;;5013510;28;20021;-71
2021/08/03 05:10:27;;;;;;;1.67;1.00;;;15.80;92.00;;;;;;4993158;28;20442;-71
2021/08/03 05:12:53;;;;;;;1.92;0.80;;;15.80;92.00;;;;;;4994851;28;20030;-71
2021/08/03 05:15:19;;;;;;;1.90;0.80;;;15.90;92.00;;;;;;4991138;28;20053;-80
2021/08/03 05:17:45;;;;;;;1.23;0.80;;;15.90;91.90;;;;;;4994210;28;20022;-77
2021/08/03 05:20:11;;;;;;;2.65;1.10;;;15.90;91.90;;;;;;4991273;28;20010;-77
2021/08/03 05:22:37;;;;;;;2.33;1.00;;;15.90;91.90;;;;;;4991560;28;20041;-78
2021/08/03 05:25:03;;;;;;;2.60;0.90;;;16.00;91.90;;;;;;4992130;28;20109;-78
2021/08/03 05:27:29;;;;;;;3.67;1.02;;;16.00;91.90;;;;;;4993019;28;20022;-78
2021/08/03 05:29:54;;;;;;;2.33;0.98;;;15.90;91.80;;;;;;4991382;28;20137;-78
2021/08/03 05:32:20;;;;;;;2.55;1.35;;;15.90;91.80;;;;;;4991205;28;20033;-76
2021/08/03 05:34:46;;;;;;;3.67;1.15;;;15.90;91.80;;;;;;4992732;28;20106;-75
2021/08/03 05:37:11;;;;;;;1.98;1.00;;;15.90;91.80;;;;;;5006938;28;20029;-76
2021/08/03 05:39:37;;;;;;;3.38;1.25;;;16.00;91.70;;;;;;4992563;28;20030;-76
2021/08/03 05:42:03;;;;;;;2.80;1.30;;;16.00;91.70;;;;;;4990069;28;20048;-77
2021/08/03 05:44:29;;;;;;;3.22;1.30;;;16.10;91.70;;;;;;4991191;28;20023;-76
2021/08/03 05:46:57;;;;;;;2.40;1.45;;;16.10;91.90;;;;;;4995690;28;20079;-77
2021/08/03 05:49:23;;;;;;;5.43;1.30;;;16.10;91.60;;;;;;5014873;28;20112;-77
2021/08/03 05:51:49;;;;;;;2.13;1.13;;;16.20;91.60;;;;;;5009844;28;20525;-77
2021/08/03 05:54:14;;;;;;;2.00;1.27;;;16.30;91.60;;;;;;5008213;28;20022;-78
2021/08/03 05:56:41;;;;;;;2.08;1.10;;;16.30;91.60;;;;;;4993462;28;20026;-78
2021/08/03 05:59:07;;;;;;;2.38;1.10;;;16.30;91.60;;;;;;4991251;28;20180;-77
2021/08/03 06:01:33;;;;;;;1.60;0.98;;;16.40;91.50;;;;;;4993481;28;20481;-78
2021/08/03 06:03:58;;;;;;;3.20;1.33;;;16.40;91.50;;;;;;4994068;28;20022;-78
2021/08/03 06:06:27;;;;;;;1.80;1.13;;;16.40;91.50;;;;;;4991709;28;20382;-78
2021/08/03 06:08:53;;;;;;;2.50;1.48;;;16.40;91.50;;;;;;4992259;28;20581;-78
2021/08/03 06:11:26;;;;;;;1.98;1.20;;;16.40;91.50;;;;;;5007959;28;20074;-78
2021/08/03 06:13:57;;;;;;;3.60;1.23;;;16.40;91.50;;;;;;5008566;28;20057;-78
2021/08/03 06:16:25;;;;;;;2.13;1.23;;;16.40;91.50;;;;;;4992826;28;20030;-77
2021/08/03 06:18:53;;;;;;;2.83;1.60;;;16.40;91.40;;;;;;4993734;28;20057;-77
2021/08/03 06:21:20;;;;;;;3.35;1.40;;;16.40;91.40;;;;;;4992844;28;20026;-77
2021/08/03 06:23:48;;;;;;;3.42;1.58;;;16.50;91.40;;;;;;4992067;28;20073;-77
2021/08/03 06:26:15;;;;;;;3.67;1.40;;;16.50;91.40;;;;;;4992830;28;20076;-77
2021/08/03 06:28:44;;;;;;;2.53;1.42;;;16.50;91.40;;;;;;4993394;28;20054;-77
2021/08/03 06:31:10;;;;;;;3.22;1.80;;;16.50;91.40;;;;;;4992722;28;20050;-77
2021/08/03 06:33:36;;;;;;;2.88;1.55;;;16.50;91.30;;;;;;4993318;28;20030;-77
2021/08/03 06:36:02;;;;;;;3.20;1.80;;;16.50;91.30;;;;;;5008296;28;20081;-77
2021/08/03 06:38:28;;;;;;;4.30;1.45;;;16.50;91.20;;;;;;4992762;28;20039;-77
2021/08/03 06:41:02;;;;;;;3.85;1.60;;;16.50;91.30;;;;;;4991926;28;20025;-77
2021/08/03 06:43:31;;;;;;;2.33;1.27;;;16.50;91.30;;;;;;4993218;28;20018;-77
2021/08/03 06:46:08;;;;;;;2.83;1.58;;;16.50;91.30;;;;;;4993116;28;20190;-77
2021/08/03 06:49:06;;;;;;;3.55;1.70;;;16.60;91.30;;;;;;4993062;28;20035;-77
2021/08/03 06:51:37;;;;;;;5.00;1.88;;;16.60;91.30;;;;;;4990978;28;20038;-77
2021/08/03 06:54:04;;;;;;;;;;;16.60;91.30;;;;;;4992108;28;20472;-77
2021/08/03 06:56:34;;;;;;;2.80;1.67;;;16.60;91.20;;;;;;5008195;28;20365;-78
2021/08/03 06:59:26;;;;;;;3.03;1.45;;;16.70;91.20;;;;;;4991797;28;20035;-76
2021/08/03 07:02:01;;;;;;;2.95;1.35;;;16.70;91.20;;;;;;4992082;28;20042;-78
2021/08/03 07:04:36;;;;;;;3.15;1.60;;;16.70;91.30;;;;;;5006919;28;20054;-77
2021/08/03 07:07:03;;;;;;;3.53;1.67;;;16.70;91.30;;;;;;4992625;28;20413;-78
2021/08/03 07:09:32;;;;;;;3.92;1.65;;;16.70;91.20;;;;;;5006240;28;20050;-77
2021/08/03 07:11:58;;;;;;;2.83;1.48;;;16.70;91.20;;;;;;4992854;28;20026;-78
2021/08/03 07:14:25;;;;;;;3.47;1.85;;;16.70;91.20;;;;;;4991061;28;20466;-78
2021/08/03 07:16:53;;;;;;;4.50;2.10;;;16.70;91.30;;;;;;4995133;28;20023;-77
2021/08/03 07:19:21;;;;;;;4.18;1.88;;;16.80;91.30;;;;;;4993598;28;20370;-78
2021/08/03 07:21:49;;;;;;;3.40;1.95;;;16.80;91.30;;;;;;4991340;28;20027;-77
2021/08/03 07:24:16;;;;;;;4.82;1.90;;;16.80;91.30;;;;;;4991992;28;20026;-78
2021/08/03 07:26:42;;;;;;;3.65;1.60;;;16.90;91.40;;;;;;4991225;28;20053;-78
2021/08/03 07:29:08;;;;;;;4.53;1.95;;;16.90;91.40;;;;;;4991953;28;20128;-78
2021/08/03 07:31:36;;;;;;;4.60;1.95;;;16.90;91.40;;;;;;4992521;28;20474;-78
2021/08/03 07:34:04;;;;;;;3.92;2.15;;;17.00;91.40;;;;;;4991163;28;20030;-78
2021/08/03 07:36:30;;;;;;;4.20;2.00;;;17.00;91.40;;;;;;4992233;28;20030;-78
2021/08/03 07:38:58;;;;;;;5.13;2.35;;;17.00;91.40;;;;;;4990792;28;20039;-77
2021/08/03 07:41:25;;;;;;;6.80;2.22;;;16.90;91.40;;;;;;5006571;28;20046;-78
2021/08/03 07:43:55;;;;;;;3.83;1.92;;;17.00;91.30;;;;;;4991172;28;20053;-78
2021/08/03 07:46:20;;;;;;;5.80;2.70;;;17.00;91.30;;;;;;4990493;28;20014;-78
2021/08/03 07:48:50;;;;;;;5.38;3.03;;;17.00;91.20;;;;;;4992518;28;20089;-78
2021/08/03 07:51:19;;;;;;;9.82;3.70;;;17.00;91.20;;;;;;4991726;28;20023;-78
2021/08/03 07:53:49;;;;;;;8.13;3.45;;;17.10;91.10;;;;;;4991913;28;20034;-78
2021/08/03 07:56:15;;;;;;;9.80;3.15;;;17.10;91.10;;;;;;4991735;28;20170;-78
2021/08/03 07:58:41;;;;;;;4.95;2.88;;;17.20;91.00;;;;;;4992130;28;20042;-78
2021/08/03 08:01:07;;;;;;;6.32;3.10;;;17.20;90.90;;;;;;4992286;28;20034;-78
2021/08/03 08:03:35;;;;;;;6.60;3.42;;;17.30;90.90;;;;;;4991919;28;20493;-78
2021/08/03 08:06:01;;;;;;;7.07;2.75;;;17.40;90.90;;;;;;4991011;28;20026;-78
2021/08/03 08:08:27;;;;;;;8.73;3.28;;;17.40;90.90;;;;;;4991387;28;20546;-78
2021/08/03 08:10:53;;;;;;;6.65;3.50;;;17.50;90.90;;;;;;4990304;28;20073;-78
2021/08/03 08:13:19;;;;;;;6.72;3.60;;;17.40;90.90;;;;;;4991609;28;20478;-78
2021/08/03 08:15:45;;;;;;;7.28;3.38;;;17.40;91.00;;;;;;5007342;28;20096;-78
2021/08/03 08:18:11;;;;;;;9.90;4.25;;;17.40;91.10;;;;;;4991505;28;20057;-78
2021/08/03 08:20:38;;;;;;;7.57;3.75;;;17.40;90.90;;;;;;4992452;28;20022;-78
2021/08/03 08:23:04;;;;;;;9.15;4.40;;;17.40;90.80;;;;;;4995330;28;20098;-78
2021/08/03 08:25:30;;;;;;;9.40;4.13;;;17.40;90.80;;;;;;4993666;28;20254;-78
2021/08/03 08:27:56;;;;;;;6.88;3.55;;;17.40;90.90;;;;;;4995691;28;20038;-77
2021/08/03 08:30:22;;;;;;;8.07;3.90;;;17.40;90.90;;;;;;4993596;28;20517;-78
2021/08/03 08:32:47;;;;;;;7.28;3.22;;;17.40;90.80;;;;;;4994440;28;20026;-78
2021/08/03 08:35:13;;;;;;;8.82;4.00;;;17.50;90.90;;;;;;4994804;28;20030;-78
2021/08/03 08:37:39;;;;;;;10.30;4.28;;;17.50;90.70;;;;;;4995366;28;20029;-78
2021/08/03 08:40:05;;;;;;;7.25;3.60;;;17.60;90.70;;;;;;4995324;28;20054;-77
2021/08/03 08:42:33;;;;;;;6.97;3.80;;;17.60;90.70;;;;;;5009321;28;20227;-78
2021/08/03 08:45:00;;;;;;;7.93;3.50;;;17.70;90.70;;;;;;4994065;28;20423;-78
2021/08/03 08:47:27;;;;;;;8.95;4.18;;;17.80;90.60;;;;;;4993002;28;20018;-78
2021/08/03 08:49:53;;;;;;;7.93;3.83;;;17.80;90.50;;;;;;4995352;28;20054;-78
2021/08/03 08:52:19;;;;;;;6.50;3.63;;;17.90;90.50;;;;;;4994539;28;20023;-78
2021/08/03 08:54:45;;;;;;;8.02;3.92;;;17.90;90.50;;;;;;4993663;28;20029;-78
2021/08/03 08:57:10;;;;;;;9.38;4.43;;;18.00;90.50;;;;;;4993726;28;20023;-78
2021/08/03 08:59:37;;;;;;;7.85;4.07;;;18.00;90.40;;;;;;4992999;28;20037;-78
2021/08/03 09:02:03;;;;;;;8.90;4.35;;;18.10;90.40;;;;;;4993515;28;20134;-78
2021/08/03 09:04:29;;;;;;;8.23;3.72;;;18.10;90.40;;;;;;4992920;28;20019;-78
2021/08/03 09:07:06;;;;;;;8.77;4.20;;;18.10;90.40;;;;;;4993469;28;20029;-78
2021/08/03 09:09:43;;;;;;;8.18;4.47;;;18.20;90.40;;;;;;4993941;28;20050;-78
2021/08/03 09:12:10;;;;;;;6.93;4.28;;;18.10;90.40;;;;;;4994661;28;20088;-77
2021/08/03 09:14:44;;;;;;;7.00;3.97;;;18.20;90.30;;;;;;5009112;28;20022;-78
2021/08/03 09:17:11;;;;;;;7.25;4.03;;;18.20;90.30;;;;;;5009732;28;20485;-77
2021/08/03 09:19:39;;;;;;;8.85;4.22;;;18.30;90.30;;;;;;4992664;28;20045;-78
2021/08/03 09:22:19;;;;;;;9.50;4.00;;;18.30;90.00;;;;;;4994492;28;20109;-77
2021/08/03 09:24:48;;;;;;;7.57;3.90;;;18.30;90.00;;;;;;5009496;28;20104;-78
2021/08/03 09:27:31;;;;;;;8.95;4.28;;;18.40;90.00;;;;;;4993219;28;20114;-78
2021/08/03 09:29:57;;;;;;;6.93;4.13;;;18.40;90.00;;;;;;4993081;28;20144;-78
2021/08/03 09:32:35;;;;;;;8.13;4.20;;;18.50;89.90;;;;;;4992748;28;20152;-78
2021/08/03 09:35:11;;;;;;;9.63;4.20;;;18.60;89.80;;;;;;4992887;28;20165;-78
2021/08/03 09:37:38;;;;;;;6.28;3.60;;;18.70;89.60;;;;;;4993654;28;20406;-77
2021/08/03 09:40:07;;;;;;;7.53;4.72;;;18.80;89.30;;;;;;4992814;28;20034;-78
2021/08/03 09:42:33;;;;;;;12.45;6.05;;;18.80;88.70;;;;;;4993731;28;20232;-76
2021/08/03 09:45:01;;;;;;;9.05;4.93;;;18.90;88.10;;;;;;4995793;28;20037;-76
2021/08/03 09:47:29;;;;;;;10.80;5.10;;;18.90;88.30;;;;;;4993449;28;20054;-78
2021/08/03 09:49:58;;;;;;;8.68;4.85;;;18.90;88.10;;;;;;4993891;28;20109;-78
2021/08/03 09:52:35;;;;;;;10.05;4.80;;;19.00;88.10;;;;;;4992983;28;20414;-78
2021/08/03 09:55:08;;;;;;;10.27;5.10;;;19.10;88.20;;;;;;4992775;28;20042;-78
2021/08/03 09:57:33;;;;;;;11.57;5.35;;;19.20;88.10;;;;;;5008480;28;20034;-78
2021/08/03 09:59:59;;;;;;;9.43;4.55;;;19.30;87.90;;;;;;4992380;28;20370;-79
2021/08/03 10:02:26;;;;;;;8.30;4.85;;;19.30;87.80;;;;;;5008074;28;20069;-79
2021/08/03 10:04:54;;;;;;;13.43;5.70;;;19.40;87.60;;;;;;5008733;28;20036;-79
2021/08/03 10:07:21;;;;;;;11.10;5.63;;;19.40;87.40;;;;;;4991859;28;20050;-77
2021/08/03 10:09:48;;;;;;;10.27;5.13;;;19.40;87.30;;;;;;4993219;28;20046;-78
2021/08/03 10:12:15;;;;;;;10.63;5.65;;;19.50;87.40;;;;;;4992149;28;20026;-78
2021/08/03 10:14:41;;;;;;;10.63;5.50;;;19.50;87.40;;;;;;4991483;28;20466;-78
2021/08/03 10:17:09;;;;;;;9.55;5.20;;;19.60;87.40;;;;;;4992147;28;20037;-78
2021/08/03 10:19:37;;;;;;;13.10;5.70;;;19.60;87.40;;;;;;4991533;28;20030;-78
2021/08/03 10:22:30;;;;;;;11.20;5.63;;;19.60;87.30;;;;;;4992314;28;20029;-78
2021/08/03 10:25:03;;;;;;;9.80;5.30;;;19.60;87.10;;;;;;4992137;28;20113;-78
2021/08/03 10:27:50;;;;;;;12.38;5.45;;;19.60;87.00;;;;;;4993066;28;20030;-78
2021/08/03 10:30:28;;;;;;;9.80;5.60;;;19.70;87.10;;;;;;4993196;28;20086;-78
2021/08/03 10:32:57;;;;;;;13.20;7.03;;;19.80;87.00;;;;;;4993339;28;20026;-78
2021/08/03 10:35:42;;;;;;;15.55;8.90;;;19.80;86.90;;;;;;4992738;28;20394;-79
2021/08/03 10:38:11;;;;;;;14.50;8.10;;;19.90;86.90;;;;;;5008309;28;20069;-78
2021/08/03 10:40:46;;;;;;;14.52;8.63;;;20.00;86.90;;;;;;5007667;28;20029;-79
2021/08/03 10:43:22;;;;;;;14.35;8.00;;;20.00;86.40;;;;;;5008043;28;20026;-78
2021/08/03 10:46:07;;;;;;;17.63;10.25;;;20.10;86.30;;;;;;4992461;28;20030;-79
2021/08/03 10:48:39;;;;;;;18.98;10.13;;;20.10;86.10;;;;;;5007650;28;20031;-78
2021/08/03 10:51:17;;;;;;;17.75;9.32;;;20.10;85.80;;;;;;5007889;28;20129;-79
2021/08/03 10:54:08;;;;;;;14.40;8.98;;;20.10;85.90;;;;;;4992482;28;20085;-78
2021/08/03 10:56:52;;;;;;;16.77;9.68;;;20.20;85.60;;;;;;4991915;28;20156;-78
2021/08/03 10:59:30;;;;;;;12.15;8.05;;;20.20;85.50;;;;;;5007867;28;20129;-78
2021/08/03 11:01:57;;;;;;;17.00;9.32;;;20.30;85.50;;;;;;5007873;28;20029;-79
2021/08/03 11:04:44;;;;;;;15.30;8.38;;;20.30;85.30;;;;;;5007451;28;20616;-78
2021/08/03 11:07:42;;;;;;;17.77;10.05;;;20.40;85.30;;;;;;5007889;28;20022;-79
2021/08/03 11:10:14;;;;;;;17.23;8.43;;;20.40;85.10;;;;;;4969885;28;20061;-79
2021/08/03 11:12:40;;;;;;;19.02;8.93;;;20.40;85.00;;;;;;5007062;28;20053;-79
2021/08/03 11:15:21;;;;;;;13.65;8.30;;;20.30;85.00;;;;;;5007698;28;20419;-79
2021/08/03 11:18:00;;;;;;;17.10;9.93;;;20.30;85.10;;;;;;5006983;28;20037;-79
2021/08/03 11:20:40;;;;;;;16.40;9.50;;;20.20;85.30;;;;;;4990791;28;20371;-79
2021/08/03 11:23:13;;;;;;;17.73;9.65;;;20.10;85.60;;;;;;4992310;28;20390;-79
2021/08/03 11:25:44;;;;;;;17.48;9.93;;;20.10;85.70;;;;;;4990596;28;20050;-78
2021/08/03 11:28:14;;;;;;;17.67;9.52;;;20.10;85.80;;;;;;4992612;28;20026;-78
2021/08/03 11:30:43;;;;;;;16.85;8.68;;;20.00;85.60;;;;;;5006806;28;20022;-78
2021/08/03 11:33:10;;;;;;;18.08;9.98;;;20.00;85.80;;;;;;4991176;28;20026;-79
2021/08/03 11:35:36;;;;;;;18.20;9.48;;;19.90;85.90;;;;;;4990578;28;20455;-79
2021/08/03 11:38:03;;;;;;;17.10;9.40;;;19.80;86.00;;;;;;4992331;28;20034;-79
2021/08/03 11:40:29;;;;;;;16.73;9.13;;;19.80;86.30;;;;;;5006853;28;20037;-79
2021/08/03 11:42:57;;;;;;;15.02;7.97;;;19.70;86.40;;;;;;4991316;28;20460;-79
2021/08/03 11:45:23;;;;;;;16.38;8.57;;;19.70;86.50;;;;;;4992482;28;20033;-78
2021/08/03 11:47:55;;;;;;;17.83;8.48;;;19.70;86.40;;;;;;4990659;28;20026;-79
2021/08/03 11:50:30;;;;;;;15.30;8.10;;;19.60;86.60;;;;;;4991165;28;20454;-79
2021/08/03 11:53:09;;;;;;;14.30;7.82;;;19.60;86.50;;;;;;5007045;28;20053;-78
2021/08/03 11:55:37;;;;;;;15.98;8.80;;;19.60;86.50;;;;;;4990957;28;20041;-79
2021/08/03 11:58:03;;;;;;;15.95;7.93;;;19.50;86.60;;;;;;4994804;28;20022;-79
2021/08/03 12:00:29;;;;;;;14.25;7.75;;;19.50;86.70;;;;;;4995031;28;20037;-79
2021/08/03 12:02:57;;;;;;;11.68;6.72;;;19.40;86.80;;;;;;4994646;28;20481;-78
2021/08/03 12:05:22;;;;;;;15.85;8.32;;;19.40;86.80;;;;;;4997800;28;20037;-78
2021/08/03 12:07:54;;;;;;;12.40;6.72;;;19.30;86.60;;;;;;5012448;28;20026;-79
2021/08/03 12:10:22;;;;;;;14.43;7.43;;;19.30;87.40;;;;;;4995493;28;20054;-79
2021/08/03 12:12:49;;;;;;;12.20;7.35;;;19.30;86.80;;;;;;5010234;28;20077;-79
2021/08/03 12:15:16;;;;;;;13.98;8.15;;;19.30;87.10;;;;;;4995695;28;20053;-79
2021/08/03 12:17:45;;;;;;;14.25;8.25;;;19.20;87.20;;;;;;4994884;28;20030;-78
2021/08/03 12:20:24;;;;;;;14.30;7.85;;;19.20;87.50;;;;;;4995709;28;20062;-78
2021/08/03 12:22:49;;;;;;;11.63;7.22;;;19.30;87.80;;;;;;4994904;28;20382;-79
2021/08/03 12:25:17;;;;;;;14.13;7.55;;;19.30;87.80;;;;;;5010643;28;20026;-79
2021/08/03 12:27:44;;;;;;;14.18;8.50;;;19.20;87.80;;;;;;4994839;28;20426;-78
2021/08/03 12:30:47;;;;;;;14.10;8.10;;;19.20;87.90;;;;;;4995640;28;20030;-79
2021/08/03 12:33:31;;;;;;;17.83;7.97;;;19.20;88.00;;;;;;4995719;28;20052;-79
2021/08/03 12:36:07;;;;;;;13.48;6.88;;;19.30;88.10;;;;;;4994304;28;20026;-79
2021/08/03 12:38:34;;;;;;;12.30;7.13;;;19.20;87.80;;;;;;4993452;28;20394;-79
2021/08/03 12:41:15;;;;;;;15.93;7.75;;;19.20;87.90;;;;;;4994110;28;20022;-79
2021/08/03 12:43:41;;;;;;;14.50;8.07;;;19.20;88.00;;;;;;5009811;28;20018;-79
2021/08/03 12:46:07;;;;;;;14.25;7.85;;;19.20;88.00;;;;;;4994994;28;20257;-79
2021/08/03 12:48:33;;;;;;;12.65;7.32;;;19.20;87.90;;;;;;4994592;28;20035;-78
2021/08/03 12:51:01;;;;;;;15.38;7.72;;;19.20;87.70;;;;;;5010472;28;20437;-78
2021/08/03 12:53:29;;;;;;;12.57;7.20;;;19.20;87.60;;;;;;4994974;28;20463;-78
2021/08/03 12:56:05;;;;;;;16.45;8.10;;;19.20;87.50;;;;;;5009987;28;20022;-79
2021/08/03 12:58:44;;;;;;;15.85;8.20;;;19.20;87.40;;;;;;4994349;28;20113;-78